createdAt,value
2023-01-21T00:01:47.833Z,0.70
2023-01-21T00:06:50.115Z,0.70
2023-01-21T00:11:52.405Z,0.70
2023-01-21T00:16:54.814Z,0.70
2023-01-21T00:21:57.147Z,0.60
2023-01-21T00:26:59.487Z,0.60
2023-01-21T00:32:01.845Z,0.60
2023-01-21T00:37:04.204Z,0.60
2023-01-21T00:42:06.590Z,0.60
2023-01-21T00:47:08.877Z,0.60
2023-01-21T00:52:11.199Z,0.60
2023-01-21T00:57:14.137Z,0.60
2023-01-21T01:02:16.688Z,0.60
2023-01-21T01:07:18.972Z,0.60
2023-01-21T01:12:21.361Z,0.60
2023-01-21T01:17:23.670Z,0.60
2023-01-21T01:22:25.972Z,0.60
2023-01-21T01:27:30.299Z,0.70
2023-01-21T01:32:32.625Z,0.70
2023-01-21T01:37:34.948Z,0.70
2023-01-21T01:42:37.239Z,0.70
2023-01-21T01:47:45.462Z,0.70
2023-01-21T01:52:47.885Z,0.70
2023-01-21T01:57:53.402Z,0.70
2023-01-21T02:03:15.451Z,0.80
2023-01-21T02:08:18.187Z,0.80
2023-01-21T02:13:20.576Z,0.80
2023-01-21T02:18:43.963Z,0.90
2023-01-21T02:24:06.990Z,0.90
2023-01-21T02:29:35.320Z,0.90
2023-01-21T02:34:48.185Z,1.00
2023-01-21T02:39:59.764Z,1.00
2023-01-21T02:45:15.149Z,1.00
2023-01-21T02:50:29.909Z,1.00
2023-01-21T02:55:38.754Z,1.00
2023-01-21T03:01:08.735Z,1.00
2023-01-21T03:06:18.936Z,1.00
2023-01-21T03:11:22.264Z,1.00
2023-01-21T03:16:50.119Z,1.00
2023-01-21T03:21:54.865Z,1.00
2023-01-21T03:27:00.162Z,1.00
2023-01-21T03:32:06.158Z,1.00
2023-01-21T03:37:17.701Z,1.00
2023-01-21T03:42:20.475Z,1.10
2023-01-21T03:47:25.367Z,1.00
2023-01-21T03:52:28.401Z,1.00
2023-01-21T03:57:30.710Z,1.10
2023-01-21T04:02:33.765Z,1.00
2023-01-21T04:07:36.314Z,1.10
2023-01-21T04:12:38.659Z,1.10
2023-01-21T04:17:40.965Z,1.10
2023-01-21T04:22:43.261Z,1.10
2023-01-21T04:27:45.545Z,1.10
2023-01-21T04:32:47.911Z,1.10
2023-01-21T04:37:50.221Z,1.10
2023-01-21T04:42:52.494Z,1.10
2023-01-21T04:47:54.785Z,1.20
2023-01-21T04:52:57.093Z,1.20
2023-01-21T04:57:59.406Z,1.20
2023-01-21T05:03:02.096Z,1.20
2023-01-21T05:08:04.456Z,1.20
2023-01-21T05:13:06.770Z,1.20
2023-01-21T05:18:09.104Z,1.20
2023-01-21T05:23:11.372Z,1.30
2023-01-21T05:28:13.655Z,1.30
2023-01-21T05:33:15.961Z,1.30
2023-01-21T05:38:18.278Z,1.30
2023-01-21T05:43:20.600Z,1.30
2023-01-21T05:48:23.294Z,1.30
2023-01-21T05:53:25.945Z,1.40
2023-01-21T05:58:28.617Z,1.40
2023-01-21T06:03:32.502Z,1.50
2023-01-21T06:08:34.977Z,1.60
2023-01-21T06:13:37.308Z,1.70
2023-01-21T06:18:39.698Z,1.70
2023-01-21T06:23:42.030Z,1.80
2023-01-21T06:28:44.347Z,1.90
2023-01-21T06:33:46.611Z,2.00
2023-01-21T06:38:48.943Z,2.00
2023-01-21T06:43:51.261Z,2.10
2023-01-21T06:48:54.377Z,2.10
2023-01-21T06:53:56.797Z,2.10
2023-01-21T06:58:59.064Z,2.20
2023-01-21T07:04:01.888Z,2.20
2023-01-21T07:09:05.432Z,2.20
2023-01-21T07:14:07.804Z,2.20
2023-01-21T07:19:11.462Z,2.30
2023-01-21T07:24:13.799Z,2.30
2023-01-21T07:29:16.206Z,2.40
2023-01-21T07:34:18.658Z,2.40
2023-01-21T07:39:20.947Z,2.40
2023-01-21T07:44:23.254Z,2.40
2023-01-21T07:49:25.539Z,2.40
2023-01-21T07:54:27.899Z,2.50
2023-01-21T07:59:30.200Z,2.40
2023-01-21T08:04:33.081Z,2.40
2023-01-21T08:09:37.540Z,2.30
2023-01-21T08:14:39.829Z,2.30
2023-01-21T08:19:42.119Z,2.30
2023-01-21T08:24:44.355Z,2.30
2023-01-21T08:29:48.518Z,2.30
2023-01-21T08:34:51.218Z,2.30
2023-01-21T08:39:53.556Z,2.30
2023-01-21T08:44:55.833Z,2.30
2023-01-21T08:49:58.186Z,2.30
2023-01-21T08:55:00.887Z,2.30
2023-01-21T09:00:03.912Z,2.20
2023-01-21T09:05:07.172Z,2.20
2023-01-21T09:10:10.134Z,2.20
2023-01-21T09:15:12.426Z,2.20
2023-01-21T09:20:14.722Z,2.10
2023-01-21T09:25:17.130Z,2.10
2023-01-21T09:30:19.616Z,2.10
2023-01-21T09:35:21.899Z,2.10
2023-01-21T09:40:24.816Z,2.10
2023-01-21T09:45:27.144Z,2.00
2023-01-21T09:50:32.084Z,2.00
2023-01-21T09:55:47.637Z,2.00
2023-01-21T10:01:13.741Z,1.90
2023-01-21T10:06:47.731Z,1.90
2023-01-21T10:11:58.119Z,1.90
2023-01-21T10:17:11.705Z,1.90
2023-01-21T10:22:21.763Z,1.90
2023-01-21T10:27:25.546Z,1.90
2023-01-21T10:32:28.741Z,1.90
2023-01-21T10:37:55.014Z,1.90
2023-01-21T10:43:07.801Z,1.90
2023-01-21T10:48:32.395Z,1.90
2023-01-21T10:53:53.689Z,1.90
2023-01-21T10:59:07.628Z,2.00
2023-01-21T11:04:20.164Z,1.80
2023-01-21T11:09:26.255Z,2.00
2023-01-21T11:14:28.630Z,2.10
2023-01-21T11:19:31.530Z,2.10
2023-01-21T11:24:45.549Z,2.10
2023-01-21T11:29:49.765Z,2.10
2023-01-21T11:34:58.705Z,2.00
2023-01-21T11:40:20.756Z,2.00
2023-01-21T11:45:33.899Z,1.90
2023-01-21T11:50:38.044Z,2.00
2023-01-21T11:55:45.522Z,1.90
2023-01-21T12:00:50.772Z,1.90
2023-01-21T12:05:53.930Z,1.90
2023-01-21T12:11:02.614Z,2.00
2023-01-21T12:16:27.070Z,2.00
2023-01-21T12:21:53.675Z,2.00
2023-01-21T12:27:33.242Z,2.00
2023-01-21T12:32:42.500Z,2.00
2023-01-21T12:38:05.081Z,1.90
2023-01-21T12:43:16.434Z,1.80
2023-01-21T12:48:26.554Z,1.90
2023-01-21T12:53:31.584Z,2.00
2023-01-21T12:58:43.763Z,2.20
2023-01-21T13:04:23.201Z,2.20
2023-01-21T13:09:40.493Z,2.20
2023-01-21T13:14:48.511Z,2.20
2023-01-21T13:19:50.937Z,2.20
2023-01-21T13:24:53.180Z,2.10
2023-01-21T13:30:14.236Z,2.20
2023-01-21T13:35:19.724Z,2.10
2023-01-21T13:40:46.431Z,2.10
2023-01-21T13:46:03.783Z,2.10
2023-01-21T13:51:20.904Z,2.10
2023-01-21T13:56:54.717Z,2.10
2023-01-21T14:02:19.715Z,2.10
2023-01-21T14:07:22.041Z,2.10
2023-01-21T14:12:36.457Z,2.00
2023-01-21T14:18:05.355Z,2.00
2023-01-21T14:23:25.020Z,1.90
2023-01-21T14:28:42.012Z,1.90
2023-01-21T14:33:49.441Z,1.90
2023-01-21T14:39:18.894Z,1.90
2023-01-21T14:44:50.034Z,1.90
2023-01-21T14:49:53.967Z,1.80
2023-01-21T14:54:56.497Z,1.80
2023-01-21T15:00:25.149Z,1.80
2023-01-21T15:05:32.733Z,1.80
2023-01-21T15:10:38.365Z,1.80
2023-01-21T15:16:01.735Z,1.80
2023-01-21T15:21:30.045Z,1.80
2023-01-21T15:26:32.763Z,1.80
2023-01-21T15:31:41.478Z,1.80
2023-01-21T15:36:47.317Z,1.80
2023-01-21T15:42:21.227Z,1.70
2023-01-21T15:47:42.199Z,1.60
2023-01-21T15:53:10.907Z,1.60
2023-01-21T15:58:27.516Z,1.50
2023-01-21T16:03:38.153Z,1.60
2023-01-21T16:08:52.099Z,1.70
2023-01-21T16:14:13.912Z,1.70
2023-01-21T16:19:21.227Z,1.70
2023-01-21T16:24:27.630Z,1.60
2023-01-21T16:29:37.657Z,1.60
2023-01-21T16:34:42.231Z,1.80
2023-01-21T16:39:45.300Z,1.60
2023-01-21T16:44:47.672Z,1.60
2023-01-21T16:49:50.103Z,1.60
2023-01-21T16:54:54.528Z,1.60
2023-01-21T16:59:58.179Z,1.70
2023-01-21T17:05:05.110Z,1.70
2023-01-21T17:10:18.560Z,1.60
2023-01-21T17:15:41.958Z,1.70
2023-01-21T17:20:49.234Z,1.60
2023-01-21T17:25:59.471Z,1.70
2023-01-21T17:31:21.124Z,1.70
2023-01-21T17:36:32.775Z,1.60
2023-01-21T17:41:37.876Z,1.60
2023-01-21T17:46:45.833Z,1.60
2023-01-21T17:51:49.620Z,1.70
2023-01-21T17:56:55.065Z,1.60
2023-01-21T18:01:57.564Z,1.70
2023-01-21T18:07:00.043Z,1.70
2023-01-21T18:12:02.390Z,1.70
2023-01-21T18:17:05.061Z,1.70
2023-01-21T18:22:17.407Z,1.70
2023-01-21T18:27:25.692Z,1.80
2023-01-21T18:32:28.516Z,1.80
2023-01-21T18:37:30.826Z,1.80
2023-01-21T18:42:33.628Z,1.90
2023-01-21T18:47:35.936Z,1.80
2023-01-21T18:52:38.263Z,1.80
2023-01-21T18:57:43.059Z,1.80
2023-01-21T19:02:45.501Z,1.90
2023-01-21T19:07:47.963Z,1.90
2023-01-21T19:12:50.412Z,1.90
2023-01-21T19:17:53.011Z,1.90
2023-01-21T19:22:56.734Z,1.90
2023-01-21T19:27:59.733Z,1.90
2023-01-21T19:33:02.143Z,1.90
2023-01-21T19:38:10.936Z,1.90
2023-01-21T19:43:14.935Z,1.90
2023-01-21T19:48:19.926Z,1.90
2023-01-21T19:53:23.290Z,1.90
2023-01-21T19:58:28.827Z,2.00
2023-01-21T20:03:31.146Z,1.90
2023-01-21T20:08:33.559Z,2.00
2023-01-21T20:13:36.901Z,2.00
2023-01-21T20:18:40.771Z,1.90
2023-01-21T20:23:43.391Z,1.90
2023-01-21T20:28:47.762Z,2.00
2023-01-21T20:33:50.081Z,2.00
2023-01-21T20:38:55.964Z,2.00
2023-01-21T20:43:58.363Z,2.00
2023-01-21T20:49:02.078Z,2.00
2023-01-21T20:54:04.570Z,2.00
2023-01-21T20:59:08.846Z,2.00
2023-01-21T21:04:11.207Z,1.90
2023-01-21T21:09:13.623Z,1.90
2023-01-21T21:14:17.668Z,1.90
2023-01-21T21:19:20.046Z,1.90
2023-01-21T21:24:25.708Z,1.80
2023-01-21T21:29:28.208Z,1.80
2023-01-21T21:34:30.506Z,1.80
2023-01-21T21:39:32.912Z,1.80
2023-01-21T21:44:36.321Z,1.90
2023-01-21T21:49:38.609Z,1.80
2023-01-21T21:54:40.967Z,1.90
2023-01-21T21:59:43.456Z,1.90
2023-01-21T22:04:45.842Z,1.80
2023-01-21T22:09:48.153Z,1.90
2023-01-21T22:14:50.583Z,1.90
2023-01-21T22:19:52.868Z,1.80
2023-01-21T22:24:55.612Z,1.90
2023-01-21T22:29:59.224Z,1.90
2023-01-21T22:35:02.989Z,1.90
2023-01-21T22:40:06.018Z,1.90
2023-01-21T22:45:08.971Z,1.90
2023-01-21T22:50:11.844Z,1.80
2023-01-21T22:55:14.293Z,1.90
2023-01-21T23:00:36.534Z,1.90
2023-01-21T23:05:38.987Z,1.80
2023-01-21T23:10:42.629Z,1.80
2023-01-21T23:15:47.052Z,1.90
2023-01-21T23:20:49.407Z,1.90
2023-01-21T23:25:52.166Z,1.90
2023-01-21T23:30:54.571Z,1.80
2023-01-21T23:35:57.026Z,1.90
2023-01-21T23:40:59.962Z,1.90
2023-01-21T23:46:05.630Z,1.80
2023-01-21T23:51:12.024Z,1.90
2023-01-21T23:56:22.941Z,1.90
